createdAt,value
2019-01-05T11:16:42.363Z,1.00
2019-01-05T11:17:42.339Z,5.60
2019-01-05T11:18:42.319Z,5.80
2019-01-05T11:19:42.304Z,5.50
2019-01-05T11:20:42.301Z,4.20
2019-01-05T11:21:42.280Z,4.30
2019-01-05T11:22:42.268Z,3.30
2019-01-05T11:23:42.255Z,7.20
2019-01-05T11:24:42.239Z,5.00
2019-01-05T11:25:42.231Z,5.40
2019-01-05T11:26:42.219Z,4.20
2019-01-05T11:27:42.209Z,5.40
2019-01-05T11:28:42.207Z,7.90
2019-01-05T11:29:42.184Z,4.60
2019-01-05T11:30:42.175Z,5.80
2019-01-05T11:31:42.173Z,5.70
2019-01-05T11:32:42.151Z,7.80
2019-01-05T11:33:42.153Z,7.60
2019-01-05T11:34:42.138Z,10.60
2019-01-05T11:35:42.126Z,8.50
2019-01-05T11:36:42.117Z,7.70
2019-01-05T11:37:42.112Z,5.30
2019-01-05T11:38:42.096Z,7.70
2019-01-05T11:39:42.091Z,9.30
2019-01-05T11:40:42.082Z,6.70
2019-01-05T11:41:42.069Z,9.70
2019-01-05T11:42:42.068Z,8.50
2019-01-05T11:43:42.053Z,11.00
2019-01-05T11:44:42.061Z,10.10
2019-01-05T11:45:42.039Z,10.90
2019-01-05T11:46:42.031Z,11.70
2019-01-05T11:47:42.023Z,8.40
2019-01-05T11:48:42.016Z,10.50
2019-01-05T11:49:42.003Z,11.50
2019-01-05T11:50:41.993Z,7.90
2019-01-05T11:51:41.993Z,9.90
2019-01-05T11:52:41.987Z,12.30
2019-01-05T11:53:41.972Z,11.10
2019-01-05T11:54:41.966Z,8.80
2019-01-05T11:55:41.962Z,6.90
2019-01-05T11:56:41.945Z,13.20
2019-01-05T11:57:41.942Z,9.20
2019-01-05T11:58:41.934Z,12.40
2019-01-05T11:59:41.943Z,9.00
2019-01-05T12:00:41.918Z,12.20
2019-01-05T12:01:41.915Z,9.10
2019-01-05T12:02:41.970Z,10.10
2019-01-05T12:03:41.898Z,9.50
2019-01-05T12:04:41.897Z,12.30
2019-01-05T12:05:41.879Z,11.00
2019-01-05T12:06:41.872Z,9.70
2019-01-05T12:07:41.873Z,12.00
2019-01-05T12:08:41.855Z,13.30
2019-01-05T12:09:41.845Z,13.40
2019-01-05T12:10:41.837Z,13.80
2019-01-05T12:11:41.832Z,11.10
2019-01-05T12:12:41.824Z,10.30
2019-01-05T12:13:41.811Z,12.80
2019-01-05T12:14:41.807Z,12.60
2019-01-05T12:15:41.797Z,9.30
2019-01-05T12:16:41.789Z,13.50
2019-01-05T12:17:41.786Z,13.00
2019-01-05T12:18:41.779Z,13.10
2019-01-05T12:19:41.772Z,16.10
2019-01-05T12:20:41.767Z,11.60
2019-01-05T12:21:41.751Z,11.60
2019-01-05T12:22:41.742Z,16.20
2019-01-05T12:23:41.737Z,16.10
2019-01-05T12:24:41.730Z,14.10
2019-01-05T12:25:41.724Z,10.20
2019-01-05T12:26:41.717Z,13.80
2019-01-05T12:27:41.704Z,15.00
2019-01-05T12:28:41.697Z,14.20
2019-01-05T12:29:41.694Z,11.60
2019-01-05T12:30:41.687Z,13.10
2019-01-05T12:31:41.677Z,11.90
2019-01-05T12:32:41.670Z,11.80
2019-01-05T12:33:41.657Z,11.50
2019-01-05T12:34:41.651Z,14.30
2019-01-05T12:35:41.643Z,9.20
2019-01-05T12:36:41.634Z,12.80
2019-01-05T12:37:41.631Z,12.70
2019-01-05T12:38:41.623Z,11.10
2019-01-05T12:39:41.618Z,11.70
2019-01-05T12:40:41.609Z,14.10
2019-01-05T12:41:41.595Z,12.20
2019-01-05T12:42:41.587Z,9.70
2019-01-05T12:43:41.587Z,12.50
2019-01-05T12:44:41.577Z,14.00
2019-01-05T12:45:41.563Z,14.50
2019-01-05T12:46:47.238Z,16.00
2019-01-05T12:47:41.548Z,12.20
2019-01-05T12:48:41.542Z,15.40
2019-01-05T12:49:41.560Z,12.70
2019-01-05T12:50:41.528Z,15.40
2019-01-05T12:51:41.520Z,12.10
2019-01-05T12:52:41.512Z,12.90
2019-01-05T12:53:41.498Z,15.70
2019-01-05T12:54:41.492Z,14.10
2019-01-05T12:55:41.483Z,15.80
2019-01-05T12:56:41.476Z,8.50
2019-01-05T12:57:41.472Z,13.20
2019-01-05T12:58:41.464Z,15.30
2019-01-05T12:59:43.009Z,13.20
2019-01-05T13:00:41.446Z,12.60
2019-01-05T13:01:41.442Z,12.50
2019-01-05T13:02:41.433Z,9.80
2019-01-05T13:03:41.427Z,12.90
2019-01-05T13:04:41.417Z,13.50
2019-01-05T13:05:41.406Z,12.70
2019-01-05T13:06:41.396Z,11.80
2019-01-05T13:07:41.387Z,12.40
2019-01-05T13:08:41.382Z,10.40
2019-01-05T13:09:41.376Z,14.10
2019-01-05T13:10:41.368Z,14.60
2019-01-05T13:11:41.361Z,12.10
2019-01-05T13:12:41.354Z,9.90
2019-01-05T13:13:41.340Z,17.10
2019-01-05T13:14:41.334Z,11.90
2019-01-05T13:15:41.330Z,11.50
2019-01-05T13:16:41.322Z,13.70
2019-01-05T13:17:41.308Z,12.60
2019-01-05T13:18:41.300Z,14.50
2019-01-05T13:19:41.292Z,18.10
2019-01-05T13:20:41.284Z,10.70
2019-01-05T13:21:41.279Z,12.70
2019-01-05T13:22:41.272Z,9.90
2019-01-05T13:23:41.265Z,10.10
2019-01-05T13:24:41.257Z,10.00
2019-01-05T13:25:41.244Z,10.70
2019-01-05T13:26:41.238Z,10.90
2019-01-05T13:27:41.228Z,11.10
2019-01-05T13:28:41.232Z,14.20
2019-01-05T13:29:41.232Z,14.80
2019-01-05T13:30:41.215Z,12.50
2019-01-05T13:31:41.198Z,11.90
2019-01-05T13:32:41.189Z,9.70
2019-01-05T13:33:41.183Z,11.00
2019-01-05T13:34:41.175Z,8.60
2019-01-05T13:35:41.169Z,12.30
2019-01-05T13:36:41.161Z,11.10
2019-01-05T13:37:41.149Z,12.50
2019-01-05T13:38:41.143Z,10.70
2019-01-05T13:39:41.133Z,12.90
2019-01-05T13:40:41.124Z,8.90
2019-01-05T13:41:41.121Z,6.50
2019-01-05T13:42:41.117Z,10.30
2019-01-05T13:43:41.119Z,10.00
2019-01-05T13:44:41.098Z,7.20
2019-01-05T13:45:41.085Z,9.80
2019-01-05T13:46:41.077Z,8.00
2019-01-05T13:47:41.076Z,12.00
2019-01-05T13:48:41.065Z,7.70
2019-01-05T13:49:41.056Z,12.90
2019-01-05T13:50:42.118Z,9.70
2019-01-05T13:51:41.044Z,9.80
2019-01-05T13:52:41.031Z,10.20
2019-01-05T13:53:41.027Z,7.30
2019-01-05T13:54:41.019Z,13.10
2019-01-05T13:55:41.010Z,14.20
2019-01-05T13:56:41.005Z,8.40
2019-01-05T13:57:40.991Z,10.50
2019-01-05T13:58:40.981Z,10.10
2019-01-05T13:59:40.974Z,14.80
2019-01-05T14:00:40.965Z,8.00
2019-01-05T14:01:40.962Z,10.10
2019-01-05T14:02:40.954Z,9.50
2019-01-05T14:03:40.942Z,10.50
2019-01-05T14:04:40.934Z,10.70
2019-01-05T14:05:40.937Z,9.80
2019-01-05T14:06:40.921Z,9.00
2019-01-05T14:07:40.914Z,9.90
2019-01-05T14:08:40.907Z,8.00
2019-01-05T14:09:40.893Z,7.80
2019-01-05T14:10:40.886Z,8.30
2019-01-05T14:11:40.878Z,8.80
2019-01-05T14:12:40.869Z,11.90
2019-01-05T14:13:40.868Z,19.20
2019-01-05T14:14:40.857Z,9.30
2019-01-05T14:15:40.849Z,10.20
2019-01-05T14:16:40.841Z,7.90
2019-01-05T14:17:40.829Z,7.40
2019-01-05T14:18:40.819Z,6.20
2019-01-05T14:19:40.818Z,7.00
2019-01-05T14:20:40.808Z,7.50
2019-01-05T14:21:40.796Z,10.50
2019-01-05T14:22:40.790Z,8.50
2019-01-05T14:23:40.778Z,7.40
2019-01-05T14:24:40.772Z,10.30
2019-01-05T14:25:40.772Z,11.00
2019-01-05T14:26:40.759Z,8.60
2019-01-05T14:27:40.751Z,8.50
2019-01-05T14:28:40.743Z,15.40
2019-01-05T14:29:40.789Z,7.90
2019-01-05T14:30:40.721Z,12.70
2019-01-05T14:31:40.714Z,14.00
2019-01-05T14:32:40.707Z,6.80
2019-01-05T14:33:40.700Z,12.50
2019-01-05T14:34:40.693Z,8.00
2019-01-05T14:35:40.680Z,12.90
2019-01-05T14:36:40.672Z,8.40
2019-01-05T14:37:40.673Z,8.50
2019-01-05T14:38:40.659Z,15.20
2019-01-05T14:39:40.651Z,13.80
2019-01-05T14:40:40.644Z,6.50
2019-01-05T14:41:40.629Z,10.90
2019-01-05T14:42:40.622Z,12.90
2019-01-05T14:43:40.613Z,11.80
2019-01-05T14:44:40.606Z,7.50
2019-01-05T14:45:40.603Z,5.60
2019-01-05T14:46:40.591Z,8.60
2019-01-05T14:47:40.586Z,7.40
2019-01-05T14:48:40.580Z,12.40
2019-01-05T14:49:40.561Z,8.00
2019-01-05T14:50:40.553Z,8.60
2019-01-05T14:51:40.556Z,9.60
2019-01-05T14:52:40.542Z,9.90
2019-01-05T14:53:40.528Z,9.90
2019-01-05T14:54:40.520Z,10.90
2019-01-05T14:55:40.512Z,7.90
2019-01-05T14:56:40.503Z,9.00
2019-01-05T14:57:40.498Z,10.70
2019-01-05T14:58:40.491Z,13.40
2019-01-05T14:59:40.483Z,8.70
2019-01-05T15:00:40.486Z,8.80
2019-01-05T15:01:40.461Z,9.90
2019-01-05T15:02:40.451Z,8.10
2019-01-05T15:03:40.445Z,8.90
2019-01-05T15:04:40.436Z,8.90
2019-01-05T15:05:40.431Z,11.00
2019-01-05T15:06:40.444Z,6.60
2019-01-05T15:07:40.460Z,10.90
2019-01-05T15:08:40.414Z,14.90
2019-01-05T15:09:40.397Z,8.50
2019-01-05T15:10:40.389Z,11.20
2019-01-05T15:11:40.380Z,9.30
2019-01-05T15:12:40.372Z,7.60
2019-01-05T15:13:40.359Z,6.20
2019-01-05T15:14:40.350Z,12.10
2019-01-05T15:15:40.346Z,7.10
2019-01-05T15:16:40.373Z,8.70
2019-01-05T15:17:40.452Z,12.40
2019-01-05T15:18:40.320Z,11.00
2019-01-05T15:19:40.317Z,10.40
2019-01-05T15:20:40.305Z,7.90
2019-01-05T15:21:40.291Z,6.30
2019-01-05T15:22:40.283Z,12.20
2019-01-05T15:23:40.282Z,8.00
2019-01-05T15:24:40.271Z,10.10
2019-01-05T15:25:40.258Z,8.40
2019-01-05T15:26:40.249Z,7.60
2019-01-05T15:27:40.241Z,10.10
2019-01-05T15:28:40.234Z,8.80
2019-01-05T15:29:40.226Z,12.00
2019-01-05T15:30:40.221Z,14.00
2019-01-05T15:31:40.211Z,8.40
2019-01-05T15:32:40.201Z,9.20
2019-01-05T15:33:40.188Z,7.50
2019-01-05T15:34:40.180Z,12.90
2019-01-05T15:35:40.172Z,12.60
2019-01-05T15:36:40.165Z,12.60
2019-01-05T15:37:40.159Z,10.10
2019-01-05T15:38:40.150Z,5.80
2019-01-05T15:39:40.143Z,13.20
2019-01-05T15:40:40.129Z,12.60
2019-01-05T15:41:40.124Z,11.20
2019-01-05T15:42:40.117Z,14.30
2019-01-05T15:43:40.107Z,12.20
2019-01-05T15:44:40.099Z,11.30
2019-01-05T15:45:40.085Z,16.60
2019-01-05T15:46:42.710Z,12.90
2019-01-05T15:47:40.071Z,17.00
2019-01-05T15:48:40.059Z,10.00
2019-01-05T15:49:40.053Z,16.70
2019-01-05T15:50:40.046Z,11.50
2019-01-05T15:51:40.038Z,14.30
2019-01-05T15:52:40.029Z,14.10
2019-01-05T15:53:40.015Z,14.00
2019-01-05T15:54:40.007Z,22.60
2019-01-05T15:55:40.002Z,35.10
2019-01-05T15:56:39.994Z,14.10
2019-01-05T15:57:39.979Z,11.80
2019-01-05T15:58:39.971Z,28.20
2019-01-05T15:59:39.962Z,12.60
2019-01-05T16:00:39.954Z,16.90
2019-01-05T16:01:39.951Z,18.70
2019-01-05T16:02:39.940Z,16.00
2019-01-05T16:03:39.930Z,15.60
2019-01-05T16:04:39.923Z,12.10
2019-01-05T16:05:39.941Z,14.90
2019-01-05T16:06:39.901Z,9.60
2019-01-05T16:07:39.891Z,13.10
2019-01-05T16:08:39.885Z,17.60
2019-01-05T16:09:39.878Z,15.00
2019-01-05T16:10:39.872Z,13.10
2019-01-05T16:11:39.857Z,10.20
2019-01-05T16:12:40.232Z,12.20
2019-01-05T16:13:39.844Z,12.10
2019-01-05T16:14:39.835Z,14.40
2019-01-05T16:15:39.826Z,11.40
2019-01-05T16:16:39.818Z,12.20
2019-01-05T16:17:39.805Z,12.20
2019-01-05T16:18:39.809Z,11.50
2019-01-05T16:19:39.788Z,11.70
2019-01-05T16:20:40.032Z,10.10
2019-01-05T16:21:39.771Z,11.60
2019-01-05T16:22:39.763Z,14.00
2019-01-05T16:23:39.756Z,13.00
2019-01-05T16:24:39.747Z,15.90
2019-01-05T16:25:39.732Z,16.50
2019-01-05T16:26:39.726Z,17.40
2019-01-05T16:27:39.720Z,13.10
2019-01-05T16:28:39.715Z,13.40
2019-01-05T16:29:39.696Z,10.50
2019-01-05T16:30:39.688Z,13.90
2019-01-05T16:31:39.680Z,14.90
2019-01-05T16:32:39.671Z,12.30
2019-01-05T16:33:39.967Z,16.80
2019-01-05T16:34:39.667Z,14.70
2019-01-05T16:35:39.649Z,15.20
2019-01-05T16:36:39.642Z,13.60
2019-01-05T16:37:39.630Z,13.30
2019-01-05T16:38:39.617Z,12.50
2019-01-05T16:39:39.610Z,18.30
2019-01-05T16:40:39.599Z,18.70
2019-01-05T16:41:39.595Z,19.80
2019-01-05T16:42:39.585Z,15.50
2019-01-05T16:43:39.574Z,15.80
2019-01-05T16:44:39.564Z,15.40
2019-01-05T16:45:39.559Z,20.30
2019-01-05T16:46:39.553Z,16.80
2019-01-05T16:47:39.542Z,19.40
2019-01-05T16:48:39.536Z,18.30
2019-01-05T16:49:39.521Z,18.70
2019-01-05T16:50:39.511Z,18.60
2019-01-05T16:51:39.502Z,16.20
2019-01-05T16:52:39.496Z,18.40
2019-01-05T16:53:39.487Z,15.40
2019-01-05T16:54:39.481Z,14.00
2019-01-05T16:55:39.470Z,18.50
2019-01-05T16:56:39.462Z,13.60
2019-01-05T16:57:40.808Z,20.10
2019-01-05T16:58:39.444Z,20.50
2019-01-05T16:59:39.435Z,15.60
2019-01-05T17:00:39.430Z,19.80
2019-01-05T17:01:39.415Z,16.50
2019-01-05T17:02:39.403Z,16.90
2019-01-05T17:03:39.394Z,22.50
2019-01-05T17:04:39.393Z,17.70
2019-01-05T17:05:39.380Z,23.40
2019-01-05T17:06:39.372Z,20.20
2019-01-05T17:07:39.363Z,18.10
2019-01-05T17:08:39.355Z,22.30
2019-01-05T17:09:39.340Z,17.70
2019-01-05T17:10:39.333Z,20.90
2019-01-05T17:11:39.323Z,22.00
2019-01-05T17:12:39.314Z,19.40
2019-01-05T17:13:39.308Z,21.30
2019-01-05T17:14:39.300Z,24.50
2019-01-05T17:15:39.286Z,20.70
2019-01-05T17:16:39.277Z,20.60
2019-01-05T17:17:39.272Z,16.60
2019-01-05T17:18:39.270Z,19.50
2019-01-05T17:19:39.255Z,22.60
2019-01-05T17:20:39.248Z,20.40
2019-01-05T17:21:39.233Z,19.00
2019-01-05T17:22:39.225Z,19.70
2019-01-05T17:23:39.234Z,19.60
2019-01-05T17:24:39.206Z,19.20
2019-01-05T17:25:39.202Z,19.90
2019-01-05T17:26:39.195Z,20.00
2019-01-05T17:27:39.190Z,21.00
2019-01-05T17:28:39.190Z,18.80
2019-01-05T17:29:39.179Z,16.20
2019-01-05T17:30:39.152Z,18.30
2019-01-05T17:31:39.160Z,19.10
2019-01-05T17:32:39.140Z,15.70
2019-01-05T17:33:39.126Z,17.10
2019-01-05T17:34:39.125Z,17.70
2019-01-05T17:35:39.107Z,18.80
2019-01-05T17:36:39.101Z,22.30
2019-01-05T17:37:39.096Z,16.60
2019-01-05T17:38:39.090Z,17.10
2019-01-05T17:39:39.084Z,14.50
2019-01-05T17:40:39.069Z,19.90
2019-01-05T17:41:39.056Z,18.10
2019-01-05T17:42:39.049Z,15.70
2019-01-05T17:43:39.037Z,18.20
2019-01-05T17:44:39.028Z,18.90
2019-01-05T17:45:39.047Z,17.40
2019-01-05T17:46:39.036Z,14.30
2019-01-05T17:47:39.000Z,16.10
2019-01-05T17:48:38.991Z,12.70
2019-01-05T17:49:38.986Z,21.90
2019-01-05T17:50:38.981Z,16.60
2019-01-05T17:51:38.970Z,20.90
2019-01-05T17:52:38.985Z,18.00
2019-01-05T17:53:38.961Z,15.40
2019-01-05T17:54:38.937Z,19.90
2019-01-05T17:55:38.943Z,19.60
2019-01-05T17:56:38.919Z,14.20
2019-01-05T17:57:38.937Z,21.00
2019-01-05T17:58:38.908Z,17.70
2019-01-05T17:59:38.927Z,20.60
2019-01-05T18:00:38.943Z,18.20
2019-01-05T18:01:38.878Z,14.90
2019-01-05T18:02:38.874Z,16.30
2019-01-05T18:03:38.860Z,18.30
2019-01-05T18:04:38.850Z,16.90
2019-01-05T18:05:38.836Z,17.90
2019-01-05T18:06:38.827Z,19.80
2019-01-05T18:07:38.818Z,20.70
2019-01-05T18:08:38.824Z,13.00
2019-01-05T18:09:38.811Z,17.20
2019-01-05T18:10:38.804Z,15.60
2019-01-05T18:11:38.785Z,15.20
2019-01-05T18:12:38.777Z,14.30
2019-01-05T18:13:38.765Z,14.10
2019-01-05T18:14:38.781Z,19.60
2019-01-05T18:15:38.816Z,14.40
2019-01-05T18:16:38.737Z,14.40
2019-01-05T18:17:38.730Z,16.60
2019-01-05T18:18:38.725Z,13.00
2019-01-05T18:19:38.708Z,16.70
2019-01-05T18:20:38.735Z,16.90
2019-01-05T18:21:38.694Z,15.30
2019-01-05T18:22:38.730Z,21.90
2019-01-05T18:23:38.676Z,18.50
2019-01-05T18:24:38.689Z,19.10
2019-01-05T18:25:38.671Z,18.40
2019-01-05T18:26:38.646Z,16.20
2019-01-05T18:27:38.649Z,18.70
2019-01-05T18:28:38.642Z,15.40
2019-01-05T18:29:38.625Z,19.00
2019-01-05T18:30:38.638Z,16.50
2019-01-05T18:31:38.602Z,19.80
2019-01-05T18:32:38.594Z,19.30
2019-01-05T18:33:38.577Z,16.90
2019-01-05T18:34:38.569Z,19.60
2019-01-05T18:35:38.589Z,17.70
2019-01-05T18:36:38.555Z,23.30
2019-01-05T18:37:38.542Z,21.20
2019-01-05T18:38:38.531Z,17.10
2019-01-05T18:39:38.543Z,23.80
2019-01-05T18:40:38.513Z,24.20
2019-01-05T18:41:38.508Z,23.50
2019-01-05T18:42:38.497Z,21.10
2019-01-05T18:43:38.504Z,25.60
2019-01-05T18:44:38.506Z,31.40
2019-01-05T18:45:38.492Z,21.70
2019-01-05T18:46:38.458Z,18.30
2019-01-05T18:47:38.449Z,26.90
2019-01-05T18:48:38.441Z,29.20
2019-01-05T18:49:38.543Z,22.00
2019-01-05T18:50:38.443Z,21.90
2019-01-05T18:51:38.437Z,22.40
2019-01-05T18:52:38.402Z,21.10
2019-01-05T18:53:38.399Z,19.40
2019-01-05T18:54:38.387Z,24.40
2019-01-05T18:55:38.406Z,21.60
2019-01-05T18:56:38.389Z,20.00
2019-01-05T18:57:38.367Z,20.50
2019-01-05T18:58:38.350Z,21.50
2019-01-05T18:59:38.338Z,23.10
2019-01-05T19:00:38.330Z,27.70
2019-01-05T19:01:38.343Z,22.90
2019-01-05T19:02:38.332Z,25.80
2019-01-05T19:03:38.349Z,20.20
2019-01-05T19:04:38.306Z,22.10
2019-01-05T19:05:38.287Z,18.30
2019-01-05T19:06:38.309Z,21.60
2019-01-05T19:07:38.289Z,32.20
2019-01-05T19:08:38.266Z,23.70
2019-01-05T19:09:38.243Z,21.30
2019-01-05T19:10:38.236Z,21.10
2019-01-05T19:11:38.255Z,23.10
2019-01-05T19:12:38.288Z,25.00
2019-01-05T19:13:38.224Z,19.60
2019-01-05T19:14:38.239Z,24.60
2019-01-05T19:15:38.193Z,20.20
2019-01-05T19:16:38.192Z,22.00
2019-01-05T19:17:38.192Z,19.80
2019-01-05T19:18:38.161Z,18.90
2019-01-05T19:19:38.151Z,20.90
2019-01-05T19:20:38.145Z,25.40
2019-01-05T19:21:38.136Z,19.50
2019-01-05T19:22:38.136Z,20.80
2019-01-05T19:23:38.145Z,25.10
2019-01-05T19:24:38.129Z,19.60
2019-01-05T19:25:38.117Z,27.20
2019-01-05T19:26:38.102Z,22.00
2019-01-05T19:27:38.104Z,21.00
2019-01-05T19:28:38.107Z,20.90
2019-01-05T19:29:38.175Z,25.80
2019-01-05T19:30:38.051Z,23.70
2019-01-05T19:31:38.042Z,20.90
2019-01-05T19:32:38.030Z,21.90
2019-01-05T19:33:38.026Z,22.20
2019-01-05T19:34:38.053Z,23.60
2019-01-05T19:35:38.007Z,26.60
2019-01-05T19:36:37.999Z,25.80
2019-01-05T19:37:37.984Z,23.50
2019-01-05T19:38:37.978Z,24.00
2019-01-05T19:39:37.989Z,24.70
2019-01-05T19:40:37.969Z,23.60
2019-01-05T19:41:37.947Z,22.10
2019-01-05T19:42:37.937Z,17.80
2019-01-05T19:43:37.930Z,25.00
2019-01-05T19:44:37.920Z,18.20
2019-01-05T19:45:37.914Z,19.90
2019-01-05T19:46:37.911Z,17.80
2019-01-05T19:47:37.890Z,22.70
2019-01-05T19:48:37.882Z,20.50
2019-01-05T19:49:37.926Z,24.80
2019-01-05T19:50:37.865Z,17.70
2019-01-05T19:51:37.858Z,18.60
2019-01-05T19:52:37.849Z,21.70
2019-01-05T19:53:37.835Z,18.40
2019-01-05T19:54:37.838Z,16.50
2019-01-05T19:55:37.831Z,19.60
2019-01-05T19:56:37.811Z,22.10
2019-01-05T19:57:37.805Z,21.80
2019-01-05T19:58:37.859Z,19.30
2019-01-05T19:59:37.782Z,21.30
2019-01-05T20:00:37.768Z,20.40
2019-01-05T20:01:37.763Z,23.30
2019-01-05T20:02:37.759Z,21.00
2019-01-05T20:03:38.289Z,24.50
2019-01-05T20:04:37.736Z,23.20
2019-01-05T20:05:37.721Z,27.20
2019-01-05T20:06:37.711Z,21.50
2019-01-05T20:07:37.705Z,18.80
2019-01-05T20:08:37.693Z,17.20
2019-01-05T20:09:37.687Z,20.60
2019-01-05T20:10:37.701Z,20.40
2019-01-05T20:11:37.667Z,17.50
2019-01-05T20:12:37.656Z,24.10
2019-01-05T20:13:37.652Z,20.70
2019-01-05T20:14:37.644Z,20.00
2019-01-05T20:15:37.662Z,19.80
2019-01-05T20:16:37.628Z,22.90
2019-01-05T20:17:37.608Z,19.10
2019-01-05T20:18:37.598Z,19.20
2019-01-05T20:19:37.592Z,18.10
2019-01-05T20:20:37.580Z,20.60
2019-01-05T20:21:37.577Z,24.00
2019-01-05T20:22:37.565Z,20.50
2019-01-05T20:23:37.564Z,19.90
2019-01-05T20:24:37.547Z,19.80
2019-01-05T20:25:37.532Z,18.50
2019-01-05T20:26:37.525Z,22.60
2019-01-05T20:27:37.518Z,25.70
2019-01-05T20:28:37.509Z,21.50
2019-01-05T20:29:37.495Z,19.20
2019-01-05T20:30:37.487Z,25.40
2019-01-05T20:31:37.486Z,21.90
2019-01-05T20:32:37.487Z,20.70
2019-01-05T20:33:37.463Z,20.20
2019-01-05T20:34:37.463Z,24.90
2019-01-05T20:35:37.447Z,27.10
2019-01-05T20:36:37.460Z,17.80
2019-01-05T20:37:37.418Z,21.50
2019-01-05T20:38:37.409Z,24.30
2019-01-05T20:39:37.401Z,21.60
2019-01-05T20:40:37.396Z,23.00
2019-01-05T20:41:37.421Z,25.80
2019-01-05T20:42:37.399Z,28.10
2019-01-05T20:43:37.362Z,21.60
2019-01-05T20:44:37.361Z,27.50
2019-01-05T20:45:37.365Z,17.30
2019-01-05T20:46:37.340Z,24.20
2019-01-05T20:47:37.328Z,23.30
2019-01-05T20:48:37.324Z,25.50
2019-01-05T20:49:37.315Z,20.10
2019-01-05T20:50:39.200Z,27.20
2019-01-05T20:51:37.285Z,25.90
2019-01-05T20:52:37.278Z,21.30
2019-01-05T20:53:37.281Z,25.80
2019-01-05T20:54:37.274Z,23.00
2019-01-05T20:55:37.267Z,20.10
2019-01-05T20:56:37.244Z,22.90
2019-01-05T20:57:37.229Z,23.80
2019-01-05T20:58:37.233Z,21.10
2019-01-05T20:59:37.275Z,26.30
2019-01-05T21:00:37.221Z,21.70
2019-01-05T21:01:37.194Z,21.60
2019-01-05T21:02:37.213Z,27.70
2019-01-05T21:03:37.176Z,26.50
2019-01-05T21:04:37.170Z,27.30
2019-01-05T21:05:37.159Z,27.10
2019-01-05T21:06:37.149Z,25.60
2019-01-05T21:07:37.139Z,22.40
2019-01-05T21:08:37.130Z,26.80
2019-01-05T21:09:37.115Z,21.50
2019-01-05T21:10:37.107Z,24.00
2019-01-05T21:11:37.096Z,21.90
2019-01-05T21:12:37.110Z,24.00
2019-01-05T21:13:37.081Z,22.60
2019-01-05T21:14:37.076Z,22.40
2019-01-05T21:15:37.058Z,24.20
2019-01-05T21:16:37.053Z,21.70
2019-01-05T21:17:37.042Z,23.30
2019-01-05T21:18:37.039Z,20.80
2019-01-05T21:19:37.028Z,20.00
2019-01-05T21:20:37.017Z,19.90
2019-01-05T21:21:37.015Z,31.80
2019-01-05T21:22:37.012Z,26.60
2019-01-05T21:23:36.993Z,20.70
2019-01-05T21:24:36.975Z,27.00
2019-01-05T21:25:36.968Z,21.30
2019-01-05T21:26:36.960Z,27.80
2019-01-05T21:27:36.951Z,21.50
2019-01-05T21:28:36.940Z,19.60
2019-01-05T21:29:36.928Z,22.00
2019-01-05T21:30:36.923Z,20.90
2019-01-05T21:31:36.919Z,23.30
2019-01-05T21:32:36.914Z,24.20
2019-01-05T21:33:36.889Z,21.90
2019-01-05T21:34:36.901Z,23.80
2019-01-05T21:35:36.870Z,22.80
2019-01-05T21:36:36.864Z,20.00
2019-01-05T21:37:36.885Z,20.90
2019-01-05T21:38:36.856Z,19.60
2019-01-05T21:39:36.851Z,24.80
2019-01-05T21:40:36.847Z,20.30
2019-01-05T21:41:36.817Z,25.70
2019-01-05T21:42:36.814Z,22.30
2019-01-05T21:43:36.800Z,24.40
2019-01-05T21:44:36.854Z,20.70
2019-01-05T21:45:36.787Z,24.00
2019-01-05T21:46:36.769Z,22.30
2019-01-05T21:47:36.760Z,23.10
2019-01-05T21:48:36.747Z,29.10
2019-01-05T21:49:36.743Z,22.70
2019-01-05T21:50:36.731Z,23.00
2019-01-05T21:51:36.723Z,25.20
2019-01-05T21:52:36.713Z,23.40
2019-01-05T21:53:36.699Z,22.70
2019-01-05T21:54:36.690Z,20.10
2019-01-05T21:55:36.678Z,24.00
2019-01-05T21:56:36.676Z,26.70
2019-01-05T21:57:36.665Z,20.40
2019-01-05T21:58:36.655Z,21.80
2019-01-05T21:59:36.648Z,26.20
2019-01-05T22:00:36.637Z,17.50
2019-01-05T22:01:36.634Z,26.70
2019-01-05T22:02:36.625Z,21.20
2019-01-05T22:03:36.610Z,24.00
2019-01-05T22:04:36.600Z,24.80
2019-01-05T22:05:36.651Z,24.90
2019-01-05T22:06:36.576Z,24.90
2019-01-05T22:07:36.569Z,18.10
2019-01-05T22:08:36.583Z,17.40
2019-01-05T22:09:36.553Z,18.30
2019-01-05T22:10:36.542Z,19.90
2019-01-05T22:11:36.533Z,22.10
2019-01-05T22:12:36.523Z,26.10
2019-01-05T22:13:36.513Z,16.40
2019-01-05T22:14:36.500Z,23.10
2019-01-05T22:15:36.492Z,23.00
2019-01-05T22:16:36.491Z,22.00
2019-01-05T22:17:36.561Z,17.10
2019-01-05T22:18:36.476Z,17.50
2019-01-05T22:19:36.454Z,20.70
2019-01-05T22:20:36.443Z,22.30
2019-01-05T22:21:36.437Z,16.80
2019-01-05T22:22:36.429Z,19.40
2019-01-05T22:23:36.419Z,20.70
2019-01-05T22:24:36.416Z,19.50
2019-01-05T22:25:36.394Z,21.40
2019-01-05T22:26:36.384Z,23.20
2019-01-05T22:27:36.376Z,20.10
2019-01-05T22:28:36.366Z,18.40
2019-01-05T22:29:36.361Z,18.30
2019-01-05T22:30:36.352Z,19.90
2019-01-05T22:31:36.344Z,21.20
2019-01-05T22:32:36.336Z,21.80
2019-01-05T22:33:36.319Z,20.40
2019-01-05T22:34:36.308Z,21.90
2019-01-05T22:35:36.305Z,16.10
2019-01-05T22:36:36.295Z,19.30
2019-01-05T22:37:36.280Z,19.50
2019-01-05T22:38:36.274Z,16.60
2019-01-05T22:39:36.262Z,21.30
2019-01-05T22:40:36.253Z,18.80
2019-01-05T22:41:36.247Z,18.70
2019-01-05T22:42:36.313Z,18.50
2019-01-05T22:43:36.229Z,20.10
2019-01-05T22:44:36.218Z,16.20
2019-01-05T22:45:36.204Z,17.50
2019-01-05T22:46:36.195Z,16.50
2019-01-05T22:47:36.185Z,20.80
2019-01-05T22:48:36.177Z,16.50
2019-01-05T22:49:36.171Z,18.10
2019-01-05T22:50:36.162Z,21.80
2019-01-05T22:51:36.149Z,24.30
2019-01-05T22:52:36.138Z,15.10
2019-01-05T22:53:36.133Z,14.80
2019-01-05T22:54:36.125Z,16.90
2019-01-05T22:55:36.115Z,20.30
2019-01-05T22:56:36.106Z,19.90
2019-01-05T22:57:36.092Z,19.90
2019-01-05T22:58:36.081Z,20.50
2019-01-05T22:59:36.073Z,19.00
2019-01-05T23:00:36.062Z,17.00
2019-01-05T23:01:36.065Z,18.50
2019-01-05T23:02:36.048Z,21.80
2019-01-05T23:03:36.037Z,19.90
2019-01-05T23:04:36.038Z,22.80
2019-01-05T23:05:36.014Z,24.00
2019-01-05T23:06:36.005Z,23.20
2019-01-05T23:07:36.000Z,19.40
2019-01-05T23:08:35.990Z,18.20
2019-01-05T23:09:35.977Z,20.70
2019-01-05T23:10:35.973Z,20.90
2019-01-05T23:11:35.959Z,16.30
2019-01-05T23:12:35.949Z,19.90
2019-01-05T23:13:35.945Z,19.40
2019-01-05T23:14:35.934Z,19.60
2019-01-05T23:15:35.924Z,17.00
2019-01-05T23:16:35.915Z,20.90
2019-01-05T23:17:35.902Z,17.40
2019-01-05T23:18:35.891Z,20.20
2019-01-05T23:19:35.888Z,19.10
2019-01-05T23:20:35.887Z,21.00
2019-01-05T23:21:35.869Z,18.70
2019-01-05T23:22:35.858Z,20.60
2019-01-05T23:23:35.850Z,24.10
2019-01-05T23:24:35.834Z,18.40
2019-01-05T23:25:35.879Z,18.50
2019-01-05T23:26:35.819Z,20.30
2019-01-05T23:27:35.818Z,23.80
2019-01-05T23:28:35.801Z,19.40
2019-01-05T23:29:35.787Z,18.10
2019-01-05T23:30:35.777Z,21.50
2019-01-05T23:31:35.769Z,18.00
2019-01-05T23:32:35.827Z,15.80
2019-01-05T23:33:35.753Z,18.20
2019-01-05T23:34:35.743Z,19.00
2019-01-05T23:35:35.740Z,16.30
2019-01-05T23:36:36.810Z,17.20
2019-01-05T23:37:35.710Z,18.00
2019-01-05T23:38:35.700Z,17.50
2019-01-05T23:39:35.697Z,19.40
2019-01-05T23:40:35.687Z,15.90
2019-01-05T23:41:35.672Z,16.40
2019-01-05T23:42:35.664Z,18.30
2019-01-05T23:43:35.654Z,15.60
2019-01-05T23:44:35.646Z,16.40
2019-01-05T23:45:35.640Z,17.40
2019-01-05T23:46:35.630Z,13.30
2019-01-05T23:47:35.621Z,18.80
2019-01-05T23:48:35.613Z,18.00
2019-01-05T23:49:35.597Z,12.10
2019-01-05T23:50:35.596Z,13.90
2019-01-05T23:51:35.577Z,12.90
2019-01-05T23:52:35.569Z,14.10
2019-01-05T23:53:35.572Z,16.30
2019-01-05T23:54:35.554Z,17.10
2019-01-05T23:55:35.540Z,15.60
2019-01-05T23:56:35.531Z,13.90
2019-01-05T23:57:35.524Z,14.10
2019-01-05T23:58:35.515Z,16.10
2019-01-05T23:59:35.508Z,13.20
